MST,Max TemperatureF,Mean TemperatureF,Min TemperatureF,Max Dew PointF,MeanDew PointF,Min DewpointF,Max Humidity, Mean Humidity, Min Humidity, Max Sea Level PressureIn, Mean Sea Level PressureIn, Min Sea Level PressureIn, Max VisibilityMiles, Mean VisibilityMiles, Min VisibilityMiles, Max Wind SpeedMPH, Mean Wind SpeedMPH, Max Gust SpeedMPH,PrecipitationIn, CloudCover, Events, WindDirDegrees
2013-2-1,69,56,42,43,37,32,100,51,25,30.23,30.18,30.13,20,20,20,6,1,,0.00,2,,160
2013-2-2,73,58,44,43,38,32,93,46,22,30.27,30.20,30.12,20,20,20,7,2,,0.00,5,,275
2013-2-3,68,62,55,48,44,39,72,52,37,30.09,30.03,29.97,20,20,20,9,3,,0.00,8,,258
2013-2-4,73,63,53,46,43,39,72,48,29,30.05,30.00,29.93,20,20,20,5,2,,0.00,2,,20
2013-2-5,73,60,48,46,41,37,82,49,29,30.05,29.98,29.91,20,20,20,6,1,,0.00,0,,173
2013-2-6,71,61,51,46,44,43,76,52,35,29.98,29.95,29.92,20,20,20,8,2,,0.00,5,,210
2013-2-7,71,60,48,45,40,34,82,48,25,30.12,30.04,29.96,20,20,20,6,2,,0.00,0,,155
2013-2-8,64,55,46,43,32,21,81,43,22,29.92,29.85,29.80,20,20,20,14,6,23,0.00,2,,203
2013-2-9,66,54,42,43,32,27,100,51,30,29.98,29.95,29.87,20,20,20,17,9,23,0.00,5,,209
2013-2-10,59,48,37,36,32,28,93,49,31,30.06,29.99,29.86,20,20,20,12,5,17,0.00,3,,197
2013-2-11,51,48,44,39,36,34,76,66,54,30.18,30.07,29.99,20,19,10,9,6,,0.00,6,,1
2013-2-12,55,44,33,39,32,21,100,63,26,30.33,30.27,30.21,20,19,15,6,2,,0.00,0,,144
2013-2-13,62,48,35,32,27,19,87,43,19,30.24,30.17,30.11,20,20,20,7,2,,0.00,0,,214
2013-2-14,68,52,37,36,30,27,81,37,23,30.17,30.11,30.04,20,20,20,7,2,,0.00,1,,75
2013-2-15,75,60,44,30,21,14,53,24,10,30.26,30.21,30.16,20,20,20,6,2,,0.00,3,,32
2013-2-16,78,61,44,27,16,3,49,19,5,30.26,30.14,29.99,20,20,20,10,3,16,0.00,1,,70
2013-2-17,73,58,44,30,20,10,57,21,9,29.94,29.89,29.83,20,20,20,15,5,21,0.00,1,,200
2013-2-18,71,58,44,28,25,19,53,30,14,30.06,30.00,29.91,20,20,20,6,5,,0.00,2,,44
2013-2-19,69,56,44,30,26,19,57,31,15,29.89,29.80,29.67,20,19,10,14,3,20,0.00,4,,179
2013-2-20,51,46,41,43,39,34,93,76,58,29.86,29.75,29.67,20,16,5,15,8,24,0.00,6,Rain,161
2013-2-21,55,46,37,37,35,34,100,61,44,30.06,30.00,29.96,20,20,20,5,2,,0.00,5,,8
2013-2-22,62,50,39,34,28,19,81,44,19,30.16,30.11,30.06,20,20,20,12,4,,0.00,1,,221
2013-2-23,64,52,39,34,30,27,81,41,24,30.12,29.98,29.84,20,20,20,10,4,,0.00,1,,112
2013-2-24,60,52,44,30,8,0,57,18,8,30.02,29.97,29.91,20,20,20,23,14,32,0.00,2,,307
2013-2-25,62,50,37,27,17,14,48,26,15,30.24,30.15,30.05,20,20,20,9,5,,0.00,0,,270
2013-2-26,66,52,37,28,22,16,70,33,14,30.07,30.01,29.96,20,20,20,8,3,18,0.00,0,,214
2013-2-27,66,57,48,10,6,1,22,12,8,30.26,30.20,30.14,20,20,20,13,8,,0.00,1,,333
2013-2-28,71,56,42,16,10,3,34,17,7,30.33,30.29,30.24,20,20,20,9,5,,0.00,0,,245